Time;durP1;ratioP1;P1;durP2;ratioP2;P2;SDS_P1;SDS_P2;PMS_P1;PMS_P2;Temp;Humidity;BMP_temperature;BMP_pressure;BME280_temperature;BME280_humidity;BME280_pressure;Samples;Min_cycle;Max_cycle;Signal;HPM_P1;HPM_P2
2021/12/16 00:08:53;;;;;;;6.03;3.77;;;7.70;99.90;;;7.94;87.20;102475.09;5032033;28;20640;-66
2021/12/16 00:19:38;;;;;;;7.70;4.23;;;7.70;99.90;;;7.92;87.41;102468.22;5033478;28;20655;-66
2021/12/16 00:28:58;;;;;;;5.57;3.50;;;7.70;99.90;;;7.84;87.15;102477.13;5051833;28;20654;-67
2021/12/16 00:33:44;;;;;;;10.40;5.50;;;7.70;99.90;;;7.88;87.00;102477.84;5051757;28;20620;-66
2021/12/16 00:36:13;;;;;;;11.30;5.17;;;7.60;99.90;;;7.83;87.60;102472.84;5030634;28;20637;-67
2021/12/16 00:38:42;;;;;;;7.77;4.43;;;7.60;99.90;;;7.78;88.21;102469.50;5030858;28;21118;-66
2021/12/16 00:41:09;;;;;;;5.87;4.10;;;7.60;99.90;;;7.86;87.91;102468.44;5042138;28;20738;-66
2021/12/16 00:43:47;;;;;;;7.40;4.57;;;7.60;99.90;;;7.90;87.27;102473.47;5054249;28;20615;-67
2021/12/16 00:47:23;;;;;;;7.30;4.67;;;7.70;99.90;;;7.89;87.08;102479.56;5055302;28;20606;-67
2021/12/16 00:54:41;;;;;;;4.40;3.87;;;7.70;99.90;;;7.93;86.67;102485.50;5051009;28;20615;-67
2021/12/16 00:57:12;;;;;;;7.07;4.53;;;7.70;99.90;;;7.94;86.71;102476.84;5049740;28;20627;-66
2021/12/16 00:59:44;;;;;;;7.40;4.30;;;7.70;99.90;;;7.90;87.71;102477.84;5050654;28;21029;-67
2021/12/16 01:38:04;;;;;;;8.40;4.90;;;7.70;99.90;;;7.99;86.56;102480.13;5048652;28;20635;-67
2021/12/16 01:46:08;;;;;;;6.23;4.40;;;7.70;99.90;;;7.97;87.17;102494.91;5048115;28;20761;-66
2021/12/16 01:51:23;;;;;;;6.73;4.50;;;7.80;99.90;;;8.04;86.16;102493.81;5049651;28;20647;-67
2021/12/16 01:57:04;;;;;;;9.67;4.57;;;7.80;99.90;;;8.04;86.20;102496.44;5033646;28;21226;-66
2021/12/16 01:59:36;;;;;;;9.67;4.60;;;7.80;99.90;;;8.06;85.98;102497.22;5049237;28;20623;-67
2021/12/16 02:02:23;;;;;;;7.00;4.40;;;7.90;99.90;;;8.08;85.97;102485.88;5049540;28;20628;-67
2021/12/16 02:05:21;;;;;;;5.43;4.33;;;7.90;99.90;;;8.07;86.30;102493.75;5048207;28;20619;-66
2021/12/16 02:08:27;;;;;;;6.97;4.43;;;7.90;99.90;;;8.08;85.37;102490.22;5043785;28;21404;-66
2021/12/16 02:10:34;;;;;;;8.10;4.47;;;7.90;99.90;;;8.04;86.35;102480.81;5039909;28;20983;-67
2021/12/16 02:13:41;;;;;;;6.90;4.00;;;7.80;99.90;;;8.00;86.61;102493.09;5053665;28;20603;-67
2021/12/16 02:37:38;;;;;;;8.03;5.70;;;7.70;99.90;;;7.96;86.82;102478.50;5064824;28;20674;-67
2021/12/16 02:40:08;;;;;;;8.87;4.80;;;7.70;99.90;;;7.96;86.24;102475.03;5054640;28;21225;-66
2021/12/16 02:42:52;;;;;;;7.50;4.53;;;7.80;99.90;;;7.96;86.70;102475.88;5053353;28;20719;-67
2021/12/16 02:50:53;;;;;;;9.20;5.63;;;7.80;99.90;;;8.08;85.90;102480.69;5052951;28;20662;-67
2021/12/16 02:53:20;;;;;;;9.10;5.30;;;7.90;99.90;;;8.10;85.38;102478.88;5038738;28;20634;-67
2021/12/16 02:55:48;;;;;;;7.90;4.47;;;7.90;99.90;;;8.07;85.59;102465.16;5053768;28;20637;-67
2021/12/16 02:58:15;;;;;;;7.53;4.83;;;7.90;99.90;;;8.06;85.69;102471.22;5052581;28;20651;-67
2021/12/16 03:00:52;;;;;;;10.93;5.77;;;7.80;99.90;;;8.01;86.67;102473.16;5054278;28;20618;-67
2021/12/16 03:03:19;;;;;;;9.20;5.07;;;7.70;99.90;;;7.96;86.59;102462.03;5052113;28;20767;-67
2021/12/16 03:05:46;;;;;;;8.90;5.83;;;7.70;99.90;;;7.93;86.89;102468.19;5052515;28;20637;-66
2021/12/16 03:08:13;;;;;;;8.83;4.53;;;7.70;99.90;;;7.96;86.25;102469.84;5051785;28;20635;-67
2021/12/16 03:14:02;;;;;;;10.00;5.40;;;7.70;99.90;;;7.95;86.70;102468.97;5037408;28;20631;-67
2021/12/16 03:16:31;;;;;;;7.03;4.70;;;7.80;99.90;;;7.94;86.88;102476.84;5051077;28;20625;-67
2021/12/16 03:22:18;;;;;;;9.73;5.20;;;7.70;99.90;;;7.96;86.20;102478.50;4981145;28;20909;-67
2021/12/16 03:28:16;;;;;;;9.50;5.37;;;7.70;99.90;;;8.01;86.08;102492.16;5026229;28;20616;-67
2021/12/16 03:38:28;;;;;;;10.47;6.60;;;7.90;99.90;;;8.12;85.66;102491.81;5049431;28;21264;-65
2021/12/16 03:40:55;;;;;;;10.30;7.00;;;7.90;99.90;;;8.14;85.46;102505.63;5051541;28;20635;-66
2021/12/16 03:43:23;;;;;;;10.13;6.50;;;7.90;99.90;;;8.19;85.97;102498.53;5052330;28;20607;-65
2021/12/16 03:46:26;;;;;;;8.60;5.77;;;8.00;99.90;;;8.21;85.35;102499.34;5050788;28;20634;-65
2021/12/16 03:49:10;;;;;;;11.30;5.50;;;8.00;99.90;;;8.21;85.66;102488.94;5034605;28;20651;-65
2021/12/16 03:51:54;;;;;;;8.90;5.57;;;8.00;99.90;;;8.21;85.59;102500.19;5052378;28;21232;-65
2021/12/16 03:54:30;;;;;;;8.60;5.40;;;8.00;99.90;;;8.16;85.21;102496.03;5050637;28;21048;-65
2021/12/16 03:56:59;;;;;;;8.57;5.40;;;8.00;99.90;;;8.14;85.50;102490.03;5046417;28;20618;-65
2021/12/16 03:59:31;;;;;;;9.37;5.33;;;7.90;99.90;;;8.15;84.71;102489.13;5050840;28;20631;-65
2021/12/16 04:02:04;;;;;;;9.03;5.23;;;7.90;99.90;;;8.13;85.12;102490.94;5052270;28;20611;-65
2021/12/16 04:04:31;;;;;;;8.70;5.30;;;8.00;99.90;;;8.10;85.11;102491.03;5051533;28;20611;-64
2021/12/16 04:06:58;;;;;;;9.80;5.50;;;7.90;99.90;;;8.07;85.25;102499.78;5053287;28;20615;-65
2021/12/16 04:09:25;;;;;;;7.10;4.77;;;7.80;99.90;;;8.07;85.74;102493.75;5051329;28;21105;-65
2021/12/16 04:12:07;;;;;;;8.90;5.37;;;7.80;99.90;;;8.00;86.31;102493.09;5051847;28;21291;-64
2021/12/16 04:14:39;;;;;;;8.37;5.27;;;7.80;99.90;;;7.94;86.63;102495.03;5050483;28;20621;-65
2021/12/16 04:17:09;;;;;;;8.00;5.30;;;7.70;99.90;;;7.91;87.39;102500.31;5052812;28;20612;-65
2021/12/16 04:19:37;;;;;;;10.63;6.40;;;7.70;99.90;;;7.94;86.90;102492.44;5071593;28;21009;-66
2021/12/16 04:22:15;;;;;;;13.27;7.20;;;7.70;99.90;;;7.97;87.19;102497.50;5072074;28;20741;-66
2021/12/16 04:24:47;;;;;;;9.60;6.00;;;7.70;99.90;;;8.03;87.14;102500.75;5033093;28;21191;-65
2021/12/16 04:27:15;;;;;;;18.53;7.17;;;7.80;99.90;;;8.05;87.08;102498.97;5050606;28;21222;-66
2021/12/16 04:29:43;;;;;;;9.97;6.13;;;7.80;99.90;;;8.08;86.43;102495.44;5051935;28;20654;-66
2021/12/16 04:32:11;;;;;;;7.80;5.37;;;7.90;99.90;;;8.05;86.53;102506.78;5051741;28;20663;-64
2021/12/16 04:34:38;;;;;;;10.00;6.17;;;7.80;99.90;;;8.06;86.49;102502.44;5050473;28;21326;-65
2021/12/16 04:37:06;;;;;;;9.87;5.47;;;7.80;99.90;;;8.05;86.66;102511.16;5051766;28;20610;-65
2021/12/16 04:39:37;;;;;;;8.60;5.77;;;7.80;99.90;;;8.04;85.73;102515.47;5045590;28;21235;-65
2021/12/16 04:42:05;;;;;;;8.00;5.07;;;7.80;99.90;;;8.03;86.63;102512.94;5048591;28;20646;-65
2021/12/16 04:44:33;;;;;;;8.90;6.23;;;7.80;99.90;;;8.05;86.29;102516.34;5039506;28;20672;-65
2021/12/16 04:47:03;;;;;;;11.33;6.17;;;7.80;99.90;;;8.04;86.14;102512.03;5071578;28;20623;-65
2021/12/16 04:49:31;;;;;;;9.33;4.97;;;7.80;99.90;;;7.99;86.70;102519.09;5064124;28;20654;-65
2021/12/16 04:52:02;;;;;;;8.97;6.07;;;7.80;99.90;;;8.05;86.82;102521.53;5050970;28;20669;-65
2021/12/16 04:54:29;;;;;;;7.77;4.73;;;7.80;99.90;;;8.02;86.73;102512.09;5051031;28;20615;-65
2021/12/16 04:56:58;;;;;;;8.60;5.20;;;7.80;99.90;;;8.02;86.18;102519.03;5028737;28;20743;-65
2021/12/16 04:59:28;;;;;;;10.30;5.20;;;7.80;99.90;;;7.95;87.04;102517.50;5048953;28;20642;-65
2021/12/16 05:02:11;;;;;;;12.20;4.70;;;7.80;99.90;;;7.88;87.41;102519.44;5047031;28;20630;-65
2021/12/16 05:04:38;;;;;;;9.87;5.50;;;7.70;99.90;;;7.86;87.43;102516.03;5071288;28;20622;-65
2021/12/16 05:07:06;;;;;;;11.50;5.93;;;7.60;99.90;;;7.86;87.19;102513.44;5056000;28;20636;-65
2021/12/16 05:12:14;;;;;;;11.67;6.70;;;7.60;99.90;;;7.89;87.02;102528.97;5048910;28;20667;-66
2021/12/16 05:14:43;;;;;;;11.17;5.90;;;7.70;99.90;;;7.92;87.43;102528.88;5031359;28;20618;-65
2021/12/16 05:17:23;;;;;;;9.57;5.50;;;7.70;99.90;;;7.91;87.04;102531.50;5048931;28;20630;-66
2021/12/16 05:19:52;;;;;;;9.00;4.80;;;7.70;99.90;;;7.92;86.47;102526.28;5049942;28;20658;-65
2021/12/16 05:25:18;;;;;;;8.50;5.20;;;7.60;99.90;;;7.88;87.11;102536.81;5050634;28;20619;-66
2021/12/16 05:27:45;;;;;;;11.00;5.60;;;7.60;99.90;;;7.80;86.73;102537.03;5048734;28;20631;-63
2021/12/16 05:30:13;;;;;;;13.63;5.23;;;7.60;99.90;;;7.81;86.45;102534.38;5042429;28;20658;-66
2021/12/16 05:32:45;;;;;;;7.50;4.77;;;7.60;99.90;;;7.80;86.41;102535.28;5050094;28;20656;-65
2021/12/16 05:35:22;;;;;;;7.90;3.93;;;7.60;99.90;;;7.75;87.58;102531.97;5048638;28;21203;-65
2021/12/16 05:37:50;;;;;;;7.37;4.73;;;7.50;99.90;;;7.72;87.56;102529.47;5049876;28;20623;-65
2021/12/16 05:40:24;;;;;;;7.07;4.60;;;7.50;99.90;;;7.74;87.28;102538.06;5049729;28;21227;-65
2021/12/16 05:42:55;;;;;;;9.87;6.30;;;7.50;99.90;;;7.77;87.78;102537.13;5051022;28;20652;-64
2021/12/16 05:45:23;;;;;;;10.50;5.77;;;7.50;99.90;;;7.80;86.88;102548.28;5049596;28;20623;-66
2021/12/16 05:47:53;;;;;;;7.77;4.53;;;7.60;99.90;;;7.81;86.96;102544.78;5049621;28;20604;-65
2021/12/16 05:50:20;;;;;;;9.27;5.50;;;7.60;99.90;;;7.78;87.04;102554.41;5048600;28;21020;-63
2021/12/16 05:52:47;;;;;;;11.37;6.63;;;7.60;99.90;;;7.81;87.33;102560.38;5032516;28;20755;-65
2021/12/16 05:55:17;;;;;;;9.80;5.67;;;7.60;99.90;;;7.83;87.53;102568.13;5048833;28;21023;-66
2021/12/16 05:57:45;;;;;;;9.60;5.30;;;7.60;99.90;;;7.86;86.74;102565.44;5046333;28;20632;-65
2021/12/16 06:00:26;;;;;;;10.50;6.43;;;7.70;99.90;;;7.90;87.06;102571.41;5036053;28;20647;-65
2021/12/16 06:02:53;;;;;;;9.80;5.17;;;7.70;99.90;;;7.91;86.67;102573.94;5041818;28;20611;-66
2021/12/16 06:05:21;;;;;;;11.30;6.33;;;7.70;99.90;;;7.93;86.40;102579.09;5049505;28;20653;-65
2021/12/16 06:07:50;;;;;;;8.63;5.33;;;7.70;99.90;;;7.93;86.58;102584.28;5033213;28;20635;-65
2021/12/16 06:13:04;;;;;;;6.80;4.47;;;7.80;99.90;;;7.87;86.09;102574.09;5031014;28;20663;-65
2021/12/16 06:15:44;;;;;;;6.37;4.33;;;7.70;99.90;;;7.84;86.54;102573.28;5049286;28;20624;-66
2021/12/16 06:31:26;;;;;;;12.53;4.80;;;7.30;99.90;;;7.55;88.62;102568.09;5019790;28;20637;-73
2021/12/16 06:33:53;;;;;;;6.07;4.13;;;7.30;99.90;;;7.55;88.26;102575.88;4997554;28;20635;-73
2021/12/16 06:36:20;;;;;;;9.77;5.37;;;7.30;99.90;;;7.60;88.29;102570.56;4996145;28;20616;-73
2021/12/16 06:38:47;;;;;;;7.30;4.27;;;7.30;99.90;;;7.54;88.49;102574.16;5011771;28;20931;-73
2021/12/16 06:41:17;;;;;;;6.20;4.37;;;7.40;99.90;;;7.57;87.88;102587.09;5030354;28;20675;-73
2021/12/16 06:43:45;;;;;;;7.93;4.77;;;7.30;99.90;;;7.58;88.01;102580.16;5028850;28;20640;-73
2021/12/16 06:46:16;;;;;;;7.53;4.47;;;7.30;99.90;;;7.59;88.85;102593.09;5029743;28;20612;-73
2021/12/16 06:48:47;;;;;;;9.00;4.37;;;7.40;99.90;;;7.53;88.65;102582.03;5029388;28;21190;-72
2021/12/16 06:51:22;;;;;;;13.30;5.80;;;7.30;99.90;;;7.54;88.79;102584.56;5012097;28;20729;-74
2021/12/16 06:54:18;;;;;;;8.40;5.00;;;7.30;99.90;;;7.57;88.24;102584.50;5024246;28;20667;-74
2021/12/16 06:56:54;;;;;;;8.07;4.77;;;7.40;99.90;;;7.64;88.07;102587.75;5013532;28;20623;-73
2021/12/16 06:59:26;;;;;;;7.97;4.40;;;7.40;99.90;;;7.64;88.70;102586.03;5031326;28;20652;-74
2021/12/16 07:04:30;;;;;;;8.40;4.30;;;7.40;99.90;;;7.62;88.18;102592.97;5016500;28;21164;-74
2021/12/16 07:06:58;;;;;;;9.17;5.43;;;7.40;99.90;;;7.62;88.82;102605.16;5033412;28;21198;-73
2021/12/16 07:09:25;;;;;;;11.20;5.63;;;7.40;99.90;;;7.59;88.87;102608.69;5032597;28;20645;-74
2021/12/16 07:11:57;;;;;;;7.17;4.77;;;7.40;99.90;;;7.63;88.50;102605.09;5016832;28;20655;-73
2021/12/16 07:14:36;;;;;;;8.40;4.93;;;7.40;99.90;;;7.63;88.54;102609.44;5033996;28;20620;-73
2021/12/16 07:17:13;;;;;;;9.10;4.63;;;7.40;99.90;;;7.63;88.23;102618.09;5016245;28;20633;-73
2021/12/16 07:19:43;;;;;;;9.27;5.27;;;7.50;99.90;;;7.62;88.20;102616.38;5015677;28;20651;-73
2021/12/16 07:22:11;;;;;;;7.77;4.70;;;7.40;99.90;;;7.60;88.84;102618.16;5015145;28;21018;-73
2021/12/16 07:24:39;;;;;;;12.83;4.67;;;7.40;99.90;;;7.58;88.98;102630.34;5030133;28;20633;-74
2021/12/16 07:27:07;;;;;;;10.00;5.63;;;7.40;99.90;;;7.62;88.72;102624.16;5034126;28;20631;-74
2021/12/16 07:29:35;;;;;;;11.90;5.67;;;7.40;99.90;;;7.66;88.69;102625.81;5015032;28;20664;-74
2021/12/16 07:32:02;;;;;;;6.23;4.20;;;7.40;99.90;;;7.71;88.25;102630.84;4998979;28;20644;-74
2021/12/16 07:34:30;;;;;;;8.40;5.40;;;7.50;99.90;;;7.74;88.50;102634.22;5031342;28;20990;-73
2021/12/16 07:36:59;;;;;;;8.83;5.53;;;7.60;99.90;;;7.75;88.21;102638.50;4999651;28;20997;-73
2021/12/16 07:39:37;;;;;;;8.00;4.90;;;7.60;99.90;;;7.75;87.87;102646.31;4999376;28;20668;-74
2021/12/16 07:42:08;;;;;;;11.90;5.50;;;7.60;99.90;;;7.74;88.29;102647.22;5014329;28;20647;-73
2021/12/16 07:44:35;;;;;;;12.87;6.40;;;7.50;99.90;;;7.76;87.96;102653.22;5011775;28;20631;-73
2021/12/16 07:47:08;;;;;;;8.97;5.00;;;7.60;99.90;;;7.77;87.64;102656.69;5031694;28;20751;-73
2021/12/16 07:49:40;;;;;;;8.93;5.20;;;7.50;99.90;;;7.81;88.13;102658.28;5020832;28;21105;-74
2021/12/16 07:52:13;;;;;;;11.40;5.03;;;7.60;99.90;;;7.80;87.49;102656.56;5014309;28;20663;-74
2021/12/16 07:54:40;;;;;;;10.23;5.10;;;7.60;99.90;;;7.81;88.32;102663.50;5031264;28;20646;-73
2021/12/16 07:57:07;;;;;;;12.50;6.00;;;7.60;99.90;;;7.82;88.14;102678.19;5015670;28;20647;-74
2021/12/16 07:59:37;;;;;;;9.03;5.00;;;7.60;99.90;;;7.84;87.76;102674.66;5029969;28;20662;-73
2021/12/16 08:02:08;;;;;;;9.53;4.93;;;7.60;99.90;;;7.76;88.61;102668.81;5012097;28;20621;-74
2021/12/16 08:04:41;;;;;;;9.77;5.40;;;7.50;99.90;;;7.79;87.83;102673.09;5029118;28;20622;-74
2021/12/16 08:07:14;;;;;;;7.70;4.53;;;7.60;99.90;;;7.83;87.82;102672.97;5013254;28;20635;-74
2021/12/16 08:09:42;;;;;;;5.30;4.30;;;7.60;99.90;;;7.85;88.69;102675.50;5029345;28;21044;-74
2021/12/16 08:12:14;;;;;;;9.50;5.27;;;7.60;99.90;;;7.87;88.26;102678.06;5028464;28;20702;-74
2021/12/16 08:14:44;;;;;;;7.67;4.90;;;7.70;99.90;;;7.90;87.80;102677.97;5014895;28;20628;-75
2021/12/16 08:17:12;;;;;;;8.97;5.60;;;7.70;99.90;;;7.86;88.30;102676.38;5013390;28;20639;-73
2021/12/16 08:19:39;;;;;;;8.93;4.30;;;7.70;99.90;;;7.88;88.12;102674.56;5031169;28;20664;-74
2021/12/16 08:22:07;;;;;;;7.13;4.53;;;7.70;99.90;;;7.86;87.88;102681.56;5028751;28;20636;-74
2021/12/16 08:24:34;;;;;;;9.93;5.70;;;7.60;99.90;;;7.90;88.19;102693.56;5013010;28;21022;-73
2021/12/16 08:27:07;;;;;;;15.87;8.63;;;7.70;99.90;;;7.88;87.99;102706.59;5011550;28;20636;-73
2021/12/16 08:29:34;;;;;;;10.43;6.10;;;7.70;99.90;;;7.92;88.76;102722.97;5024936;28;20735;-74
2021/12/16 08:32:02;;;;;;;10.73;5.70;;;7.70;99.90;;;7.95;88.20;102702.94;5013398;28;20659;-74
2021/12/16 08:34:32;;;;;;;6.27;4.37;;;7.80;99.90;;;7.95;87.25;102712.47;5012767;28;20628;-74
2021/12/16 08:37:00;;;;;;;11.43;5.70;;;7.80;99.90;;;7.99;87.40;102708.88;5005857;28;20616;-73
2021/12/16 08:39:27;;;;;;;11.73;5.73;;;7.80;99.90;;;8.07;86.61;102718.19;5012679;28;21038;-73
2021/12/16 08:41:57;;;;;;;10.20;4.67;;;7.90;99.90;;;8.14;86.94;102708.44;5017995;28;20660;-74
2021/12/16 08:44:25;;;;;;;8.10;5.13;;;8.00;99.90;;;8.13;86.65;102707.63;5024760;28;21226;-72
2021/12/16 08:46:59;;;;;;;8.60;5.20;;;7.90;99.90;;;8.14;86.42;102708.44;5030293;28;20628;-73
2021/12/16 08:49:26;;;;;;;9.07;5.23;;;7.90;99.90;;;8.17;86.69;102716.19;5028699;28;20710;-73
2021/12/16 08:51:58;;;;;;;9.87;5.53;;;8.00;99.90;;;8.16;85.97;102707.50;5030013;28;20646;-73
2021/12/16 08:54:25;;;;;;;8.43;5.00;;;8.00;99.90;;;8.20;86.36;102708.28;5022916;28;20636;-73
2021/12/16 08:56:52;;;;;;;10.30;5.60;;;8.00;99.90;;;8.27;86.47;102709.84;5013691;28;20660;-73
2021/12/16 08:59:21;;;;;;;7.70;4.77;;;8.10;99.90;;;8.29;86.17;102708.91;5015467;28;21110;-73
2021/12/16 09:01:52;;;;;;;11.23;6.33;;;8.20;99.90;;;8.29;85.45;102719.31;5024680;28;20619;-73
2021/12/16 09:04:22;;;;;;;9.27;5.33;;;8.20;99.90;;;8.34;85.77;102717.44;5011630;28;20739;-73
2021/12/16 09:06:53;;;;;;;5.57;4.33;;;8.20;99.90;;;8.40;85.65;102721.59;5028660;28;21047;-73
2021/12/16 09:09:20;;;;;;;12.30;5.77;;;8.20;99.90;;;8.36;85.64;102718.22;5012364;28;20650;-73
2021/12/16 09:12:05;;;;;;;7.77;4.53;;;8.20;99.90;;;8.34;85.29;102721.78;5029689;28;20996;-73
2021/12/16 09:14:35;;;;;;;13.93;5.27;;;8.20;99.90;;;8.39;86.13;102730.31;5015128;28;20986;-74
2021/12/16 09:17:09;;;;;;;10.77;5.47;;;8.20;99.90;;;8.37;86.34;102725.13;5030709;28;20609;-73
2021/12/16 09:19:43;;;;;;;13.40;6.40;;;8.20;99.90;;;8.48;85.65;102738.66;5031216;28;21190;-73
2021/12/16 09:22:15;;;;;;;11.37;6.20;;;8.30;99.90;;;8.53;85.67;102743.75;5029043;28;20693;-73
2021/12/16 09:24:44;;;;;;;11.17;6.47;;;8.40;99.90;;;8.63;85.42;102752.09;5030131;28;21208;-73
2021/12/16 09:27:12;;;;;;;12.33;5.17;;;8.50;99.90;;;8.72;84.63;102750.09;5012210;28;20718;-74
2021/12/16 09:29:39;;;;;;;9.27;5.60;;;8.60;99.90;;;8.69;84.09;102744.97;5012317;28;20641;-75
2021/12/16 09:32:07;;;;;;;10.87;6.37;;;8.60;99.90;;;8.73;83.99;102756.97;5026224;28;21257;-73
2021/12/16 09:34:38;;;;;;;13.03;6.50;;;8.60;99.90;;;8.83;83.83;102761.03;5031220;28;20665;-73
2021/12/16 09:37:06;;;;;;;7.60;4.30;;;8.70;99.90;;;8.83;83.10;102762.78;5012166;28;21188;-73
2021/12/16 09:39:34;;;;;;;11.70;5.57;;;8.70;99.90;;;8.74;83.42;102763.91;5005100;28;20637;-73
2021/12/16 09:42:01;;;;;;;9.60;5.70;;;8.60;99.90;;;8.86;82.17;102760.91;5026751;28;21188;-73
2021/12/16 09:44:29;;;;;;;7.60;5.60;;;8.70;99.90;;;8.92;83.01;102767.69;5028260;28;20632;-73
2021/12/16 09:46:59;;;;;;;12.80;5.50;;;8.70;99.90;;;8.97;82.24;102766.63;5009445;28;21016;-74
2021/12/16 09:49:27;;;;;;;7.83;5.10;;;8.90;99.90;;;9.02;82.16;102777.78;4994482;28;20645;-73
2021/12/16 09:51:59;;;;;;;9.33;5.87;;;8.90;99.90;;;9.18;81.73;102765.94;4994005;28;21188;-73
2021/12/16 09:54:29;;;;;;;9.23;5.13;;;9.10;99.90;;;9.36;81.23;102760.16;4996069;28;20660;-73
2021/12/16 09:56:57;;;;;;;9.50;6.07;;;9.40;99.90;;;9.49;81.23;102759.72;5011580;28;20728;-73
2021/12/16 09:59:27;;;;;;;10.97;5.90;;;9.50;99.90;;;9.60;79.61;102753.25;5012249;28;20665;-73
2021/12/16 10:01:58;;;;;;;8.60;5.67;;;9.60;99.90;;;9.62;79.29;102755.81;4992606;28;20629;-73
2021/12/16 10:04:31;;;;;;;10.33;5.67;;;9.60;99.90;;;9.54;79.29;102763.88;5010156;28;21016;-71
2021/12/16 10:07:06;;;;;;;8.27;5.57;;;9.50;99.90;;;9.59;79.40;102761.97;5004855;28;21143;-73
2021/12/16 10:09:33;;;;;;;12.40;6.87;;;9.50;99.90;;;9.65;79.35;102761.75;5003481;28;20682;-73
2021/12/16 10:12:06;;;;;;;10.77;6.13;;;9.60;99.90;;;9.68;78.98;102761.66;5012012;28;20628;-72
2021/12/16 10:14:57;;;;;;;10.40;6.53;;;9.60;99.90;;;9.76;78.89;102758.78;5009797;28;20672;-72
2021/12/16 10:17:26;;;;;;;9.63;5.70;;;9.70;99.90;;;9.77;78.61;102756.13;5014085;28;20617;-73
2021/12/16 10:19:57;;;;;;;10.40;6.60;;;9.70;99.90;;;9.84;78.82;102762.81;5011752;28;20660;-73
2021/12/16 10:22:37;;;;;;;11.30;6.13;;;9.70;99.90;;;9.84;77.86;102751.53;5009730;28;20632;-72
2021/12/16 10:25:24;;;;;;;10.67;5.97;;;9.80;99.90;;;9.85;78.36;102750.63;5015715;28;21021;-73
2021/12/16 10:28:04;;;;;;;11.10;5.70;;;9.80;99.90;;;9.90;78.31;102751.34;5024588;28;20620;-74
2021/12/16 10:31:11;;;;;;;8.97;5.90;;;9.80;99.90;;;9.98;78.18;102760.59;5007497;28;20783;-75
2021/12/16 10:33:49;;;;;;;11.83;6.40;;;9.90;99.90;;;10.06;78.00;102762.91;4998589;28;20670;-73
2021/12/16 10:36:18;;;;;;;7.93;6.03;;;10.00;99.90;;;10.12;77.11;102758.34;5024027;28;20683;-77
2021/12/16 10:39:05;;;;;;;11.50;5.90;;;10.00;99.90;;;10.17;77.38;102766.03;5014088;28;20628;-77
2021/12/16 10:41:40;;;;;;;12.87;5.77;;;10.00;99.90;;;10.23;76.75;102771.00;5025009;28;20641;-77
2021/12/16 10:44:28;;;;;;;9.93;6.30;;;10.10;99.90;;;10.45;75.53;102771.06;5018023;28;20621;-78
2021/12/16 10:47:06;;;;;;;13.50;7.30;;;10.40;99.90;;;10.59;76.08;102764.41;5037606;28;20636;-79
2021/12/16 10:49:45;;;;;;;16.57;6.80;;;10.60;99.90;;;10.76;74.53;102769.84;5023428;28;20660;-73
2021/12/16 10:52:22;;;;;;;15.60;6.20;;;10.80;99.90;;;10.77;74.67;102763.72;5029649;28;20836;-72
2021/12/16 10:54:50;;;;;;;10.07;6.57;;;10.80;99.90;;;10.72;74.66;102759.56;5013993;28;20659;-72
2021/12/16 10:57:25;;;;;;;13.57;7.30;;;10.70;99.90;;;10.65;74.24;102758.09;5009039;28;20632;-72
2021/12/16 10:59:58;;;;;;;12.17;6.70;;;10.50;99.90;;;10.45;75.36;102760.63;5022096;28;20667;-70
2021/12/16 11:02:34;;;;;;;8.60;6.17;;;10.30;99.90;;;10.10;76.76;102748.84;5013205;28;20604;-73
2021/12/16 11:05:10;;;;;;;11.90;7.30;;;9.90;99.90;;;10.04;77.88;102749.06;5031464;28;20612;-72
2021/12/16 11:07:43;;;;;;;9.70;5.70;;;9.80;99.90;;;10.23;77.67;102757.97;5033560;28;20992;-73
2021/12/16 11:10:29;;;;;;;11.63;5.80;;;10.10;99.90;;;10.39;75.89;102755.63;5032807;28;20656;-73
2021/12/16 11:13:09;;;;;;;11.70;6.70;;;10.30;99.90;;;10.60;75.77;102740.00;4996330;28;20664;-73
2021/12/16 11:15:43;;;;;;;11.77;7.30;;;10.60;99.90;;;10.69;74.50;102744.84;5014347;28;21196;-73
2021/12/16 11:18:13;;;;;;;14.30;7.20;;;10.70;99.90;;;10.75;74.45;102739.38;5034465;28;21234;-73
2021/12/16 11:20:49;;;;;;;8.93;5.70;;;10.70;99.90;;;10.55;76.13;102744.56;5031295;28;20663;-73
2021/12/16 11:23:26;;;;;;;11.50;6.77;;;10.50;99.90;;;10.60;75.73;102734.78;5033345;28;20624;-72
2021/12/16 11:26:05;;;;;;;11.87;7.13;;;10.50;99.90;;;10.74;75.24;102740.31;5013842;28;20636;-73
2021/12/16 11:28:43;;;;;;;15.23;8.53;;;10.60;99.90;;;10.93;75.47;102743.91;5014889;28;21175;-73
2021/12/16 11:31:25;;;;;;;14.77;8.23;;;11.00;99.90;;;11.12;75.40;102750.97;5023520;28;20652;-72
2021/12/16 11:33:57;;;;;;;14.17;8.87;;;11.20;99.90;;;11.20;74.33;102754.16;5015911;28;20668;-76
2021/12/16 11:36:37;;;;;;;14.77;8.40;;;11.30;99.90;;;11.20;73.52;102757.59;5013359;28;20618;-77
2021/12/16 11:39:20;;;;;;;14.57;7.20;;;11.20;99.90;;;11.29;73.36;102738.94;5012572;28;20652;-77
2021/12/16 11:42:01;;;;;;;9.63;6.73;;;11.30;99.90;;;11.30;73.44;102735.41;5005530;28;20954;-70
2021/12/16 11:44:39;;;;;;;13.23;7.53;;;11.30;99.90;;;11.30;73.78;102739.78;5023010;28;21037;-71
2021/12/16 11:47:08;;;;;;;11.23;7.30;;;11.20;99.90;;;11.25;73.48;102736.50;5014032;28;20809;-73
2021/12/16 11:49:45;;;;;;;17.07;8.60;;;11.10;99.90;;;11.19;74.46;102729.78;5014227;28;20736;-71
2021/12/16 11:52:16;;;;;;;16.00;8.10;;;11.10;99.90;;;11.08;74.65;102737.19;4996698;28;20659;-71
2021/12/16 11:54:50;;;;;;;21.63;8.90;;;10.90;99.90;;;10.98;74.45;102740.25;4996225;28;20661;-71
2021/12/16 11:58:01;;;;;;;17.33;9.20;;;10.80;99.90;;;10.85;75.73;102732.91;5013847;28;20622;-68
2021/12/16 12:00:33;;;;;;;13.90;9.30;;;10.60;99.90;;;10.76;75.21;102735.03;4950848;29;20867;-70
2021/12/16 12:03:07;;;;;;;13.80;8.37;;;10.50;99.90;;;10.64;76.71;102725.94;4952373;29;21196;-73
2021/12/16 12:05:48;;;;;;;30.63;16.03;;;10.40;99.90;;;10.54;77.29;102716.72;5001159;28;20686;-74
2021/12/16 12:08:21;;;;;;;33.70;9.60;;;10.20;99.90;;;10.43;77.99;102716.31;5032876;28;20620;-70
2021/12/16 12:10:51;;;;;;;9.73;6.50;;;10.10;99.90;;;10.39;78.02;102716.50;5027404;28;20722;-70
2021/12/16 12:13:26;;;;;;;16.03;8.13;;;10.10;99.90;;;10.33;77.94;102712.34;5025391;28;20657;-70
2021/12/16 12:16:07;;;;;;;14.37;8.20;;;10.00;99.90;;;10.25;78.02;102716.16;4995886;28;20971;-73
2021/12/16 12:19:07;;;;;;;14.30;8.20;;;10.00;99.90;;;10.23;78.72;102721.44;5013866;28;20659;-70
2021/12/16 12:21:46;;;;;;;11.73;7.50;;;10.00;99.90;;;10.19;79.18;102719.00;4979981;28;20594;-70
2021/12/16 12:24:14;;;;;;;13.87;7.83;;;10.00;99.90;;;10.17;79.12;102720.81;5016126;28;20608;-70
2021/12/16 12:26:52;;;;;;;13.70;8.63;;;9.90;99.90;;;10.19;79.42;102726.81;5014977;28;20630;-71
2021/12/16 12:32:20;;;;;;;11.67;7.33;;;10.00;99.90;;;10.42;78.89;102730.28;5031474;28;20652;-67
2021/12/16 12:34:53;;;;;;;19.67;9.70;;;10.20;99.90;;;10.55;79.11;102721.06;5037960;28;20671;-67
2021/12/16 12:37:23;;;;;;;18.57;9.80;;;10.40;99.90;;;10.61;78.78;102727.78;5051512;28;20620;-67
2021/12/16 12:39:57;;;;;;;17.03;8.20;;;10.50;99.90;;;10.80;77.22;102732.22;5047263;28;20650;-67
2021/12/16 12:42:24;;;;;;;11.53;7.10;;;10.70;99.90;;;11.03;77.04;102733.91;5052654;28;20610;-67
2021/12/16 12:44:52;;;;;;;12.60;8.53;;;11.00;99.90;;;11.20;75.90;102735.84;5052189;28;20613;-67
2021/12/16 12:47:26;;;;;;;15.87;9.23;;;11.20;99.90;;;11.30;75.27;102727.56;5051441;28;20627;-67
2021/12/16 12:50:16;;;;;;;13.17;8.00;;;11.30;99.90;;;11.38;75.26;102725.47;5052006;28;20650;-68
2021/12/16 12:52:49;;;;;;;15.57;8.37;;;11.30;99.90;;;11.41;75.52;102721.88;5044590;28;20613;-68
2021/12/16 12:55:31;;;;;;;13.70;7.80;;;11.30;99.90;;;11.43;75.13;102723.53;5032406;28;21053;-68
2021/12/16 12:58:08;;;;;;;16.90;9.17;;;11.30;99.90;;;11.34;75.25;102718.69;5032787;28;20601;-67
2021/12/16 13:01:04;;;;;;;14.80;8.80;;;11.20;99.90;;;11.31;75.20;102712.72;5032068;28;20959;-67
2021/12/16 13:03:37;;;;;;;16.93;9.30;;;11.10;99.90;;;11.26;75.39;102709.47;5032334;28;20617;-66
2021/12/16 13:06:12;;;;;;;14.20;8.90;;;11.10;99.90;;;11.15;74.89;102709.06;5031933;28;21172;-67
2021/12/16 13:08:47;;;;;;;12.70;8.20;;;10.90;99.90;;;11.15;75.54;102709.06;5015033;28;20612;-67
2021/12/16 13:11:18;;;;;;;15.43;9.27;;;11.00;99.90;;;11.14;75.28;102710.81;5032314;28;21009;-66
2021/12/16 13:28:34;;;;;;;12.60;7.60;;;10.90;99.90;;;11.10;77.98;102708.38;5031922;28;20727;-67